sensor_id;sensor_type;location;lat;lon;timestamp;pressure;altitude;pressure_sealevel;temperature;humidity
77685;BME280;66844;46.092;18.268;2023-05-07T00:00:28;99226.91;;;16.52;58.05
77685;BME280;66844;46.092;18.268;2023-05-07T00:00:58;99224.34;;;16.50;58.07
77685;BME280;66844;46.092;18.268;2023-05-07T00:01:30;99226.91;;;16.52;58.34
77685;BME280;66844;46.092;18.268;2023-05-07T00:02:00;99230.84;;;16.48;58.64
77685;BME280;66844;46.092;18.268;2023-05-07T00:02:31;99235.34;;;16.47;58.23
77685;BME280;66844;46.092;18.268;2023-05-07T00:03:03;99233.66;;;16.46;57.92
77685;BME280;66844;46.092;18.268;2023-05-07T00:03:33;99229.00;;;16.48;57.98
77685;BME280;66844;46.092;18.268;2023-05-07T00:04:05;99236.34;;;16.46;58.00
77685;BME280;66844;46.092;18.268;2023-05-07T00:04:35;99233.66;;;16.46;57.86
77685;BME280;66844;46.092;18.268;2023-05-07T00:05:08;99226.56;;;16.45;58.30
77685;BME280;66844;46.092;18.268;2023-05-07T00:05:39;99218.50;;;16.45;57.59
77685;BME280;66844;46.092;18.268;2023-05-07T00:06:10;99227.56;;;16.44;57.87
77685;BME280;66844;46.092;18.268;2023-05-07T00:06:43;99228.53;;;16.43;58.18
77685;BME280;66844;46.092;18.268;2023-05-07T00:07:14;99215.50;;;16.39;57.84
77685;BME280;66844;46.092;18.268;2023-05-07T00:07:45;99224.31;;;16.41;57.70
77685;BME280;66844;46.092;18.268;2023-05-07T00:08:15;99218.34;;;16.37;57.92
77685;BME280;66844;46.092;18.268;2023-05-07T00:08:47;99220.75;;;16.40;58.01
77685;BME280;66844;46.092;18.268;2023-05-07T00:09:18;99221.72;;;16.39;58.04
77685;BME280;66844;46.092;18.268;2023-05-07T00:09:49;99227.00;;;16.41;57.79
77685;BME280;66844;46.092;18.268;2023-05-07T00:10:20;99222.31;;;16.43;57.53
77685;BME280;66844;46.092;18.268;2023-05-07T00:10:50;99214.16;;;16.44;56.61
77685;BME280;66844;46.092;18.268;2023-05-07T00:11:21;99216.56;;;16.47;56.49
77685;BME280;66844;46.092;18.268;2023-05-07T00:11:52;99221.34;;;16.44;58.09
77685;BME280;66844;46.092;18.268;2023-05-07T00:12:23;99222.59;;;16.40;58.40
77685;BME280;66844;46.092;18.268;2023-05-07T00:12:53;99214.53;;;16.40;57.70
77685;BME280;66844;46.092;18.268;2023-05-07T00:13:24;99218.94;;;16.41;57.79
77685;BME280;66844;46.092;18.268;2023-05-07T00:13:55;99217.06;;;16.41;57.31
77685;BME280;66844;46.092;18.268;2023-05-07T00:14:26;99220.59;;;16.42;57.52
77685;BME280;66844;46.092;18.268;2023-05-07T00:14:57;99224.31;;;16.41;57.78
77685;BME280;66844;46.092;18.268;2023-05-07T00:15:28;99222.31;;;16.43;57.27
77685;BME280;66844;46.092;18.268;2023-05-07T00:15:58;99220.75;;;16.40;57.76
77685;BME280;66844;46.092;18.268;2023-05-07T00:16:29;99220.16;;;16.37;58.01
77685;BME280;66844;46.092;18.268;2023-05-07T00:17:00;99229.19;;;16.36;58.16
77685;BME280;66844;46.092;18.268;2023-05-07T00:17:32;99220.16;;;16.37;57.95
77685;BME280;66844;46.092;18.268;2023-05-07T00:18:03;99225.66;;;16.35;58.24
77685;BME280;66844;46.092;18.268;2023-05-07T00:18:34;99222.28;;;16.33;58.19
77685;BME280;66844;46.092;18.268;2023-05-07T00:19:04;99225.81;;;16.34;58.24
77685;BME280;66844;46.092;18.268;2023-05-07T00:19:35;99216.03;;;16.33;57.93
77685;BME280;66844;46.092;18.268;2023-05-07T00:20:07;99217.59;;;16.35;57.96
77685;BME280;66844;46.092;18.268;2023-05-07T00:20:38;99225.06;;;16.32;58.50
77685;BME280;66844;46.092;18.268;2023-05-07T00:21:08;99223.50;;;16.29;58.42
77685;BME280;66844;46.092;18.268;2023-05-07T00:21:39;99222.66;;;16.29;58.44
77685;BME280;66844;46.092;18.268;2023-05-07T00:22:10;99216.44;;;16.28;57.40
77685;BME280;66844;46.092;18.268;2023-05-07T00:22:40;99228.50;;;16.34;57.81
77685;BME280;66844;46.092;18.268;2023-05-07T00:23:11;99222.28;;;16.33;57.78
77685;BME280;66844;46.092;18.268;2023-05-07T00:23:42;99217.75;;;16.34;57.64
77685;BME280;66844;46.092;18.268;2023-05-07T00:24:12;99226.25;;;16.39;57.18
77685;BME280;66844;46.092;18.268;2023-05-07T00:24:43;99220.88;;;16.39;57.15
77685;BME280;66844;46.092;18.268;2023-05-07T00:25:14;99231.22;;;16.43;56.84
77685;BME280;66844;46.092;18.268;2023-05-07T00:25:45;99225.97;;;16.42;56.90
77685;BME280;66844;46.092;18.268;2023-05-07T00:26:16;99226.41;;;16.37;57.86
77685;BME280;66844;46.092;18.268;2023-05-07T00:26:46;99230.50;;;16.41;57.19
77685;BME280;66844;46.092;18.268;2023-05-07T00:27:17;99230.66;;;16.40;57.31
77685;BME280;66844;46.092;18.268;2023-05-07T00:27:48;99227.97;;;16.40;57.33
77685;BME280;66844;46.092;18.268;2023-05-07T00:28:19;99223.44;;;16.40;57.34
77685;BME280;66844;46.092;18.268;2023-05-07T00:28:50;99228.66;;;16.42;56.37
77685;BME280;66844;46.092;18.268;2023-05-07T00:29:20;99230.00;;;16.47;56.68
77685;BME280;66844;46.092;18.268;2023-05-07T00:29:51;99237.66;;;16.52;56.53
77685;BME280;66844;46.092;18.268;2023-05-07T00:30:22;99223.66;;;16.48;56.26
77685;BME280;66844;46.092;18.268;2023-05-07T00:30:52;99224.34;;;16.50;56.23
77685;BME280;66844;46.092;18.268;2023-05-07T00:31:23;99223.50;;;16.50;56.26
77685;BME280;66844;46.092;18.268;2023-05-07T00:31:54;99233.25;;;16.51;56.46
77685;BME280;66844;46.092;18.268;2023-05-07T00:32:25;99219.84;;;16.51;56.52
77685;BME280;66844;46.092;18.268;2023-05-07T00:32:56;99220.69;;;16.52;56.48
77685;BME280;66844;46.092;18.268;2023-05-07T00:33:27;99222.63;;;16.49;56.54
77685;BME280;66844;46.092;18.268;2023-05-07T00:33:57;99220.53;;;16.53;56.25
77685;BME280;66844;46.092;18.268;2023-05-07T00:34:28;99219.56;;;16.54;55.87
77685;BME280;66844;46.092;18.268;2023-05-07T00:34:59;99224.94;;;16.54;56.50
77685;BME280;66844;46.092;18.268;2023-05-07T00:35:30;99222.38;;;16.52;56.46
77685;BME280;66844;46.092;18.268;2023-05-07T00:36:00;99219.69;;;16.52;56.10
77685;BME280;66844;46.092;18.268;2023-05-07T00:36:32;99221.38;;;16.54;55.94
77685;BME280;66844;46.092;18.268;2023-05-07T00:37:03;99227.63;;;16.54;56.24
77685;BME280;66844;46.092;18.268;2023-05-07T00:37:33;99221.38;;;16.54;56.01
77685;BME280;66844;46.092;18.268;2023-05-07T00:38:05;99218.72;;;16.54;56.14
77685;BME280;66844;46.092;18.268;2023-05-07T00:38:35;99231.06;;;16.56;55.84
77685;BME280;66844;46.092;18.268;2023-05-07T00:39:06;99222.00;;;16.57;56.04
77685;BME280;66844;46.092;18.268;2023-05-07T00:39:37;99229.13;;;16.47;57.82
77685;BME280;66844;46.092;18.268;2023-05-07T00:40:08;99227.00;;;16.41;58.65
77685;BME280;66844;46.092;18.268;2023-05-07T00:40:39;99224.03;;;16.44;57.04
77685;BME280;66844;46.092;18.268;2023-05-07T00:41:10;99231.94;;;16.45;56.10
77685;BME280;66844;46.092;18.268;2023-05-07T00:41:40;99232.09;;;16.44;57.56
77685;BME280;66844;46.092;18.268;2023-05-07T00:42:11;99235.53;;;16.35;58.34
77685;BME280;66844;46.092;18.268;2023-05-07T00:42:42;99227.28;;;16.27;59.23
77685;BME280;66844;46.092;18.268;2023-05-07T00:43:17;99230.50;;;16.21;59.59
77685;BME280;66844;46.092;18.268;2023-05-07T00:43:48;99231.94;;;16.25;58.64
77685;BME280;66844;46.092;18.268;2023-05-07T00:44:18;99234.53;;;16.26;59.11
77685;BME280;66844;46.092;18.268;2023-05-07T00:44:49;99228.69;;;16.21;60.00
77685;BME280;66844;46.092;18.268;2023-05-07T00:45:20;99229.22;;;16.15;59.95
77685;BME280;66844;46.092;18.268;2023-05-07T00:45:51;99232.22;;;16.22;57.32
77685;BME280;66844;46.092;18.268;2023-05-07T00:46:22;99233.06;;;16.22;59.04
77685;BME280;66844;46.092;18.268;2023-05-07T00:46:54;99234.03;;;16.21;59.39
77685;BME280;66844;46.092;18.268;2023-05-07T00:47:25;99235.53;;;16.14;60.86
77685;BME280;66844;46.092;18.268;2023-05-07T00:47:59;99235.41;;;16.16;58.81
77685;BME280;66844;46.092;18.268;2023-05-07T00:48:30;99240.53;;;16.19;58.87
77685;BME280;66844;46.092;18.268;2023-05-07T00:49:01;99232.38;;;16.09;60.53
77685;BME280;66844;46.092;18.268;2023-05-07T00:49:40;99232.53;;;16.08;60.88
77685;BME280;66844;46.092;18.268;2023-05-07T00:50:11;99226.03;;;16.10;58.86
77685;BME280;66844;46.092;18.268;2023-05-07T00:50:44;99233.31;;;16.19;57.08
77685;BME280;66844;46.092;18.268;2023-05-07T00:51:17;99233.78;;;16.24;57.12
77685;BME280;66844;46.092;18.268;2023-05-07T00:51:48;99238.88;;;16.27;56.28
77685;BME280;66844;46.092;18.268;2023-05-07T00:52:21;99231.84;;;16.26;57.68
77685;BME280;66844;46.092;18.268;2023-05-07T00:52:55;99229.00;;;16.28;56.31
77685;BME280;66844;46.092;18.268;2023-05-07T00:53:26;99233.97;;;16.32;56.81
77685;BME280;66844;46.092;18.268;2023-05-07T00:53:58;99232.84;;;16.35;56.18
77685;BME280;66844;46.092;18.268;2023-05-07T00:54:29;99236.28;;;16.37;56.30
77685;BME280;66844;46.092;18.268;2023-05-07T00:55:04;99236.88;;;16.40;56.32
77685;BME280;66844;46.092;18.268;2023-05-07T00:55:36;99227.81;;;16.41;55.57
77685;BME280;66844;46.092;18.268;2023-05-07T00:56:08;99239.00;;;16.46;55.98
77685;BME280;66844;46.092;18.268;2023-05-07T00:56:39;99237.91;;;16.49;55.48
77685;BME280;66844;46.092;18.268;2023-05-07T00:57:10;99240.06;;;16.55;55.48
77685;BME280;66844;46.092;18.268;2023-05-07T00:57:42;99230.66;;;16.61;55.06
77685;BME280;66844;46.092;18.268;2023-05-07T00:58:12;99232.25;;;16.63;55.29
77685;BME280;66844;46.092;18.268;2023-05-07T00:58:43;99227.25;;;16.59;55.40
77685;BME280;66844;46.092;18.268;2023-05-07T00:59:14;99229.56;;;16.63;55.15
77685;BME280;66844;46.092;18.268;2023-05-07T00:59:45;99227.44;;;16.67;54.78
77685;BME280;66844;46.092;18.268;2023-05-07T01:00:17;99230.34;;;16.75;54.14
77685;BME280;66844;46.092;18.268;2023-05-07T01:00:48;99225.78;;;16.75;53.89
77685;BME280;66844;46.092;18.268;2023-05-07T01:01:19;99229.91;;;16.79;54.07
77685;BME280;66844;46.092;18.268;2023-05-07T01:01:51;99224.41;;;16.81;53.67
77685;BME280;66844;46.092;18.268;2023-05-07T01:02:22;99226.81;;;16.84;53.71
77685;BME280;66844;46.092;18.268;2023-05-07T01:02:53;99235.34;;;16.89;53.52
77685;BME280;66844;46.092;18.268;2023-05-07T01:03:24;99224.44;;;16.90;53.50
77685;BME280;66844;46.092;18.268;2023-05-07T01:03:55;99230.66;;;16.91;53.05
77685;BME280;66844;46.092;18.268;2023-05-07T01:04:26;99229.69;;;16.92;53.09
77685;BME280;66844;46.092;18.268;2023-05-07T01:04:57;99234.41;;;17.00;53.50
77685;BME280;66844;46.092;18.268;2023-05-07T01:05:29;99232.84;;;16.97;53.67
77685;BME280;66844;46.092;18.268;2023-05-07T01:06:02;99231.56;;;17.01;52.93
77685;BME280;66844;46.092;18.268;2023-05-07T01:06:33;99219.56;;;17.05;52.84
77685;BME280;66844;46.092;18.268;2023-05-07T01:07:05;99227.22;;;17.10;52.47
77685;BME280;66844;46.092;18.268;2023-05-07T01:07:37;99223.28;;;17.14;52.08
77685;BME280;66844;46.092;18.268;2023-05-07T01:08:09;99225.84;;;17.15;52.38
77685;BME280;66844;46.092;18.268;2023-05-07T01:08:41;99222.09;;;16.97;56.49
77685;BME280;66844;46.092;18.268;2023-05-07T01:09:12;99229.28;;;16.96;54.35
77685;BME280;66844;46.092;18.268;2023-05-07T01:09:44;99230.84;;;16.99;54.65
77685;BME280;66844;46.092;18.268;2023-05-07T01:10:15;99226.47;;;16.98;55.43
77685;BME280;66844;46.092;18.268;2023-05-07T01:10:47;99231.41;;;16.93;55.85
77685;BME280;66844;46.092;18.268;2023-05-07T01:11:17;99227.41;;;16.87;56.82
77685;BME280;66844;46.092;18.268;2023-05-07T01:11:51;99231.56;;;16.71;59.58
77685;BME280;66844;46.092;18.268;2023-05-07T01:12:23;99226.72;;;16.65;58.80
77685;BME280;66844;46.092;18.268;2023-05-07T01:12:54;99228.91;;;16.71;56.92
77685;BME280;66844;46.092;18.268;2023-05-07T01:13:25;99227.88;;;16.72;58.03
77685;BME280;66844;46.092;18.268;2023-05-07T01:13:59;99228.25;;;16.58;59.66
77685;BME280;66844;46.092;18.268;2023-05-07T01:14:30;99224.41;;;16.60;56.86
77685;BME280;66844;46.092;18.268;2023-05-07T01:15:05;99220.69;;;16.52;60.14
77685;BME280;66844;46.092;18.268;2023-05-07T01:15:37;99227.06;;;16.30;61.57
77685;BME280;66844;46.092;18.268;2023-05-07T01:16:09;99227.69;;;16.22;62.42
77685;BME280;66844;46.092;18.268;2023-05-07T01:16:40;99227.13;;;16.19;62.01
77685;BME280;66844;46.092;18.268;2023-05-07T01:17:12;99223.97;;;16.14;62.67
77685;BME280;66844;46.092;18.268;2023-05-07T01:17:43;99225.06;;;16.11;62.26
77685;BME280;66844;46.092;18.268;2023-05-07T01:18:14;99232.47;;;16.19;60.44
77685;BME280;66844;46.092;18.268;2023-05-07T01:18:45;99227.81;;;16.21;60.37
77685;BME280;66844;46.092;18.268;2023-05-07T01:19:19;99221.75;;;16.19;61.51
77685;BME280;66844;46.092;18.268;2023-05-07T01:19:50;99225.91;;;16.12;62.22
77685;BME280;66844;46.092;18.268;2023-05-07T01:20:22;99219.75;;;16.00;62.88
77685;BME280;66844;46.092;18.268;2023-05-07T01:20:56;99230.03;;;15.95;62.71
77685;BME280;66844;46.092;18.268;2023-05-07T01:21:32;99227.34;;;15.95;61.93
77685;BME280;66844;46.092;18.268;2023-05-07T01:22:08;99232.69;;;15.95;nan
77685;BME280;66844;46.092;18.268;2023-05-07T01:22:39;99218.09;;;15.88;62.46
77685;BME280;66844;46.092;18.268;2023-05-07T01:23:11;99227.00;;;15.88;62.61
77685;BME280;66844;46.092;18.268;2023-05-07T01:23:43;99232.00;;;15.82;62.94
77685;BME280;66844;46.092;18.268;2023-05-07T01:24:14;99229.00;;;15.75;62.98
77685;BME280;66844;46.092;18.268;2023-05-07T01:24:46;99225.34;;;15.76;62.90
77685;BME280;66844;46.092;18.268;2023-05-07T01:25:18;99232.78;;;15.73;62.89
77685;BME280;66844;46.092;18.268;2023-05-07T01:25:52;99223.81;;;15.63;63.29
77685;BME280;66844;46.092;18.268;2023-05-07T01:26:23;99230.03;;;15.63;63.22
77685;BME280;66844;46.092;18.268;2023-05-07T01:26:54;99228.91;;;15.66;62.99
77685;BME280;66844;46.092;18.268;2023-05-07T01:27:25;99231.38;;;15.58;63.46
77685;BME280;66844;46.092;18.268;2023-05-07T01:27:56;99234.16;;;15.56;63.44
77685;BME280;66844;46.092;18.268;2023-05-07T01:28:27;99227.50;;;15.50;63.62
77685;BME280;66844;46.092;18.268;2023-05-07T01:28:58;99234.41;;;15.53;63.52
77685;BME280;66844;46.092;18.268;2023-05-07T01:29:29;99232.34;;;15.57;62.48
77685;BME280;66844;46.092;18.268;2023-05-07T01:29:59;99233.44;;;15.54;63.12
77685;BME280;66844;46.092;18.268;2023-05-07T01:30:31;99225.66;;;15.40;63.82
77685;BME280;66844;46.092;18.268;2023-05-07T01:31:04;99223.34;;;15.35;64.07
77685;BME280;66844;46.092;18.268;2023-05-07T01:31:37;99239.16;;;15.38;63.81
77685;BME280;66844;46.092;18.268;2023-05-07T01:32:09;99225.31;;;15.33;63.67
77685;BME280;66844;46.092;18.268;2023-05-07T01:32:47;99221.88;;;15.31;64.36
77685;BME280;66844;46.092;18.268;2023-05-07T01:33:20;99232.59;;;15.31;64.46
77685;BME280;66844;46.092;18.268;2023-05-07T01:33:57;99225.06;;;15.25;64.62
77685;BME280;66844;46.092;18.268;2023-05-07T01:34:32;99225.34;;;15.22;65.15
77685;BME280;66844;46.092;18.268;2023-05-07T01:35:09;99226.28;;;15.21;64.62
77685;BME280;66844;46.092;18.268;2023-05-07T01:35:45;99224.59;;;15.20;64.77
77685;BME280;66844;46.092;18.268;2023-05-07T01:36:18;99225.56;;;15.19;64.70
77685;BME280;66844;46.092;18.268;2023-05-07T01:36:50;99225.69;;;15.18;65.01
77685;BME280;66844;46.092;18.268;2023-05-07T01:37:23;99222.00;;;15.19;64.66
77685;BME280;66844;46.092;18.268;2023-05-07T01:37:56;99226.28;;;15.21;64.46
77685;BME280;66844;46.092;18.268;2023-05-07T01:38:27;99217.50;;;15.19;64.83
77685;BME280;66844;46.092;18.268;2023-05-07T01:38:59;99220.19;;;15.19;64.51
77685;BME280;66844;46.092;18.268;2023-05-07T01:39:31;99223.72;;;15.20;64.39
77685;BME280;66844;46.092;18.268;2023-05-07T01:40:03;99211.94;;;15.22;63.21
77685;BME280;66844;46.092;18.268;2023-05-07T01:40:35;99217.63;;;15.29;62.74
77685;BME280;66844;46.092;18.268;2023-05-07T01:41:06;99223.97;;;15.28;63.22
77685;BME280;66844;46.092;18.268;2023-05-07T01:41:37;99217.03;;;15.25;64.13
77685;BME280;66844;46.092;18.268;2023-05-07T01:42:08;99214.22;;;15.27;63.07
77685;BME280;66844;46.092;18.268;2023-05-07T01:42:41;99215.81;;;15.29;63.26
77685;BME280;66844;46.092;18.268;2023-05-07T01:43:13;99213.25;;;15.28;63.52
77685;BME280;66844;46.092;18.268;2023-05-07T01:43:45;99214.97;;;15.29;63.47
77685;BME280;66844;46.092;18.268;2023-05-07T01:44:18;99215.94;;;15.28;63.92
77685;BME280;66844;46.092;18.268;2023-05-07T01:44:50;99221.28;;;15.28;63.60
77685;BME280;66844;46.092;18.268;2023-05-07T01:45:21;99217.63;;;15.29;63.50
77685;BME280;66844;46.092;18.268;2023-05-07T01:45:52;99214.69;;;15.32;62.76
77685;BME280;66844;46.092;18.268;2023-05-07T01:46:26;99214.34;;;15.36;62.13
77685;BME280;66844;46.092;18.268;2023-05-07T01:46:57;99215.66;;;15.42;61.22
77685;BME280;66844;46.092;18.268;2023-05-07T01:47:29;99209.31;;;15.43;61.68
77685;BME280;66844;46.092;18.268;2023-05-07T01:48:02;99213.72;;;15.44;62.09
77685;BME280;66844;46.092;18.268;2023-05-07T01:48:34;99206.53;;;15.44;61.00
77685;BME280;66844;46.092;18.268;2023-05-07T01:49:05;99216.66;;;15.52;60.80
77685;BME280;66844;46.092;18.268;2023-05-07T01:49:36;99211.41;;;15.50;61.36
77685;BME280;66844;46.092;18.268;2023-05-07T01:50:08;99214.09;;;15.50;61.53
77685;BME280;66844;46.092;18.268;2023-05-07T01:50:41;99206.75;;;15.52;61.03
77685;BME280;66844;46.092;18.268;2023-05-07T01:51:13;99212.97;;;15.53;60.85
77685;BME280;66844;46.092;18.268;2023-05-07T01:51:44;99214.41;;;15.57;60.56
77685;BME280;66844;46.092;18.268;2023-05-07T01:52:15;99212.47;;;15.59;60.64
77685;BME280;66844;46.092;18.268;2023-05-07T01:52:47;99211.47;;;15.60;61.14
77685;BME280;66844;46.092;18.268;2023-05-07T01:53:18;99212.47;;;15.59;61.06
77685;BME280;66844;46.092;18.268;2023-05-07T01:53:48;99214.31;;;15.59;61.25
77685;BME280;66844;46.092;18.268;2023-05-07T01:54:28;99214.41;;;15.57;61.67
77685;BME280;66844;46.092;18.268;2023-05-07T01:54:59;99219.94;;;15.56;61.97
77685;BME280;66844;46.092;18.268;2023-05-07T01:55:29;99220.91;;;15.55;61.95
77685;BME280;66844;46.092;18.268;2023-05-07T01:56:00;99219.19;;;15.53;61.94
77685;BME280;66844;46.092;18.268;2023-05-07T01:56:31;99220.31;;;15.51;62.12
77685;BME280;66844;46.092;18.268;2023-05-07T01:57:01;99216.13;;;15.47;62.17
77685;BME280;66844;46.092;18.268;2023-05-07T01:57:32;99218.47;;;15.51;61.89
77685;BME280;66844;46.092;18.268;2023-05-07T01:58:04;99222.84;;;15.52;61.77
77685;BME280;66844;46.092;18.268;2023-05-07T01:58:34;99221.28;;;15.50;62.20
77685;BME280;66844;46.092;18.268;2023-05-07T01:59:05;99219.56;;;15.49;62.26
77685;BME280;66844;46.092;18.268;2023-05-07T01:59:36;99217.84;;;15.48;61.98
77685;BME280;66844;46.092;18.268;2023-05-07T02:00:07;99223.22;;;15.48;62.09
77685;BME280;66844;46.092;18.268;2023-05-07T02:00:40;99224.03;;;15.48;61.87
77685;BME280;66844;46.092;18.268;2023-05-07T02:01:12;99220.53;;;15.48;61.66
77685;BME280;66844;46.092;18.268;2023-05-07T02:01:43;99226.72;;;15.48;61.96
77685;BME280;66844;46.092;18.268;2023-05-07T02:02:13;99218.66;;;15.48;61.53
77685;BME280;66844;46.092;18.268;2023-05-07T02:02:44;99217.00;;;15.47;61.41
77685;BME280;66844;46.092;18.268;2023-05-07T02:03:15;99218.59;;;15.50;61.36
77685;BME280;66844;46.092;18.268;2023-05-07T02:03:46;99213.22;;;15.50;61.45
77685;BME280;66844;46.092;18.268;2023-05-07T02:04:17;99222.97;;;15.51;61.28
77685;BME280;66844;46.092;18.268;2023-05-07T02:04:47;99210.28;;;15.53;61.19
77685;BME280;66844;46.092;18.268;2023-05-07T02:05:18;99221.88;;;15.53;61.17
77685;BME280;66844;46.092;18.268;2023-05-07T02:05:49;99214.69;;;15.54;61.15
77685;BME280;66844;46.092;18.268;2023-05-07T02:06:20;99214.56;;;15.56;61.09
77685;BME280;66844;46.092;18.268;2023-05-07T02:06:51;99217.00;;;15.59;60.52
77685;BME280;66844;46.092;18.268;2023-05-07T02:07:23;99209.66;;;15.61;60.03
77685;BME280;66844;46.092;18.268;2023-05-07T02:07:53;99212.22;;;15.62;60.15
77685;BME280;66844;46.092;18.268;2023-05-07T02:08:24;99206.97;;;15.61;60.51
77685;BME280;66844;46.092;18.268;2023-05-07T02:08:55;99216.72;;;15.62;60.80
77685;BME280;66844;46.092;18.268;2023-05-07T02:09:26;99206.25;;;15.59;61.36
77685;BME280;66844;46.092;18.268;2023-05-07T02:09:56;99214.41;;;15.57;60.99
77685;BME280;66844;46.092;18.268;2023-05-07T02:10:27;99211.88;;;15.56;61.49
77685;BME280;66844;46.092;18.268;2023-05-07T02:10:58;99218.81;;;15.58;61.01
77685;BME280;66844;46.092;18.268;2023-05-07T02:11:29;99212.34;;;15.61;60.66
77685;BME280;66844;46.092;18.268;2023-05-07T02:11:59;99214.06;;;15.62;60.62
77685;BME280;66844;46.092;18.268;2023-05-07T02:12:30;99209.53;;;15.62;60.35
77685;BME280;66844;46.092;18.268;2023-05-07T02:13:01;99212.06;;;15.64;60.36
77685;BME280;66844;46.092;18.268;2023-05-07T02:13:33;99214.66;;;15.65;60.11
77685;BME280;66844;46.092;18.268;2023-05-07T02:14:07;99213.69;;;15.66;60.44
77685;BME280;66844;46.092;18.268;2023-05-07T02:14:38;99211.97;;;15.65;60.70
77685;BME280;66844;46.092;18.268;2023-05-07T02:15:09;99213.78;;;15.65;61.05
77685;BME280;66844;46.092;18.268;2023-05-07T02:15:41;99213.78;;;15.65;60.92
77685;BME280;66844;46.092;18.268;2023-05-07T02:16:12;99211.97;;;15.65;60.81
77685;BME280;66844;46.092;18.268;2023-05-07T02:16:44;99208.44;;;15.65;60.94
77685;BME280;66844;46.092;18.268;2023-05-07T02:17:15;99208.44;;;15.65;60.92
77685;BME280;66844;46.092;18.268;2023-05-07T02:18:03;99205.03;;;15.63;61.18
77685;BME280;66844;46.092;18.268;2023-05-07T02:18:34;99208.56;;;15.63;61.30
77685;BME280;66844;46.092;18.268;2023-05-07T02:19:06;99209.53;;;15.62;61.09
77685;BME280;66844;46.092;18.268;2023-05-07T02:19:36;99206.97;;;15.61;60.60
77685;BME280;66844;46.092;18.268;2023-05-07T02:20:07;99202.47;;;15.61;61.49
77685;BME280;66844;46.092;18.268;2023-05-07T02:20:43;99211.47;;;15.60;61.34
77685;BME280;66844;46.092;18.268;2023-05-07T02:21:14;99201.75;;;15.59;61.17
77685;BME280;66844;46.092;18.268;2023-05-07T02:21:45;99212.06;;;15.64;60.90
77685;BME280;66844;46.092;18.268;2023-05-07T02:22:16;99207.56;;;15.64;60.91
77685;BME280;66844;46.092;18.268;2023-05-07T02:22:46;99200.25;;;15.66;60.60
77685;BME280;66844;46.092;18.268;2023-05-07T02:23:17;99195.75;;;15.67;60.50
77685;BME280;66844;46.092;18.268;2023-05-07T02:23:48;99204.50;;;15.69;60.41
77685;BME280;66844;46.092;18.268;2023-05-07T02:24:19;99196.09;;;15.73;59.77
77685;BME280;66844;46.092;18.268;2023-05-07T02:24:50;99197.81;;;15.74;59.63
77685;BME280;66844;46.092;18.268;2023-05-07T02:25:20;99197.13;;;15.82;59.13
77685;BME280;66844;46.092;18.268;2023-05-07T02:25:51;99202.38;;;15.83;59.40
77685;BME280;66844;46.092;18.268;2023-05-07T02:26:22;99198.84;;;15.83;59.14
77685;BME280;66844;46.092;18.268;2023-05-07T02:26:52;99190.78;;;15.83;58.99
77685;BME280;66844;46.092;18.268;2023-05-07T02:27:23;99200.28;;;15.87;58.73
77685;BME280;66844;46.092;18.268;2023-05-07T02:27:54;99192.72;;;15.92;58.98
77685;BME280;66844;46.092;18.268;2023-05-07T02:28:25;99196.09;;;15.94;58.53
77685;BME280;66844;46.092;18.268;2023-05-07T02:28:55;99192.47;;;15.95;58.82
77685;BME280;66844;46.092;18.268;2023-05-07T02:29:26;99191.47;;;15.96;58.51
77685;BME280;66844;46.092;18.268;2023-05-07T02:29:57;99200.84;;;16.01;58.24
77685;BME280;66844;46.092;18.268;2023-05-07T02:30:28;99187.56;;;16.00;58.27
77685;BME280;66844;46.092;18.268;2023-05-07T02:30:59;99194.38;;;16.04;58.17
77685;BME280;66844;46.092;18.268;2023-05-07T02:31:30;99195.19;;;16.05;58.02
77685;BME280;66844;46.092;18.268;2023-05-07T02:32:01;99190.56;;;16.07;57.91
77685;BME280;66844;46.092;18.268;2023-05-07T02:32:32;99195.66;;;16.10;58.13
77685;BME280;66844;46.092;18.268;2023-05-07T02:33:03;99192.00;;;16.11;57.89
77685;BME280;66844;46.092;18.268;2023-05-07T02:33:33;99198.94;;;16.13;58.21
77685;BME280;66844;46.092;18.268;2023-05-07T02:34:05;99192.59;;;16.14;58.01
77685;BME280;66844;46.092;18.268;2023-05-07T02:34:36;99193.47;;;16.15;58.08
77685;BME280;66844;46.092;18.268;2023-05-07T02:35:07;99189.78;;;16.16;58.07
77685;BME280;66844;46.092;18.268;2023-05-07T02:35:38;99184.66;;;16.13;58.37
77685;BME280;66844;46.092;18.268;2023-05-07T02:36:10;99189.78;;;16.16;58.35
77685;BME280;66844;46.092;18.268;2023-05-07T02:36:41;99188.94;;;16.15;58.23
77685;BME280;66844;46.092;18.268;2023-05-07T02:37:12;99185.53;;;16.13;58.30
77685;BME280;66844;46.092;18.268;2023-05-07T02:37:42;99195.03;;;16.17;58.56
77685;BME280;66844;46.092;18.268;2023-05-07T02:38:13;99189.91;;;16.14;59.14
77685;BME280;66844;46.092;18.268;2023-05-07T02:38:44;99191.00;;;16.12;59.03
77685;BME280;66844;46.092;18.268;2023-05-07T02:39:16;99189.19;;;16.12;59.21
77685;BME280;66844;46.092;18.268;2023-05-07T02:39:47;99190.19;;;16.11;59.37
77685;BME280;66844;46.092;18.268;2023-05-07T02:40:18;99188.31;;;16.12;59.40
77685;BME280;66844;46.092;18.268;2023-05-07T02:40:49;99188.75;;;16.07;59.16
77685;BME280;66844;46.092;18.268;2023-05-07T02:41:20;99192.28;;;16.08;59.27
77685;BME280;66844;46.092;18.268;2023-05-07T02:41:51;99191.69;;;16.04;59.34
77685;BME280;66844;46.092;18.268;2023-05-07T02:42:21;99185.47;;;16.04;59.15
77685;BME280;66844;46.092;18.268;2023-05-07T02:42:52;99190.56;;;16.07;59.45
77685;BME280;66844;46.092;18.268;2023-05-07T02:43:23;99180.97;;;16.04;59.53
77685;BME280;66844;46.092;18.268;2023-05-07T02:43:53;99188.00;;;16.05;59.47
77685;BME280;66844;46.092;18.268;2023-05-07T02:44:24;99189.59;;;16.08;59.43
77685;BME280;66844;46.092;18.268;2023-05-07T02:44:55;99194.09;;;16.07;59.91